createdAt,value
2017-12-17T00:00:33.313Z,6.60
2017-12-17T00:06:36.919Z,13.50
2017-12-17T00:12:41.226Z,14.50
2017-12-17T00:18:44.782Z,12.40
2017-12-17T00:24:48.288Z,9.20
2017-12-17T00:30:51.979Z,6.13
2017-12-17T00:36:56.371Z,7.70
2017-12-17T00:43:00.026Z,6.30
2017-12-17T00:49:04.447Z,6.23
2017-12-17T00:55:07.992Z,7.43
2017-12-17T01:01:11.526Z,7.07
2017-12-17T01:07:15.041Z,12.83
2017-12-17T01:13:19.394Z,5.50
2017-12-17T01:19:25.022Z,9.53
2017-12-17T01:25:29.607Z,6.73
2017-12-17T01:31:33.251Z,8.67
2017-12-17T01:37:37.529Z,11.27
2017-12-17T01:43:41.807Z,6.10
2017-12-17T01:49:46.057Z,5.50
2017-12-17T01:55:49.610Z,16.93
2017-12-17T02:01:53.390Z,12.50
2017-12-17T02:07:57.796Z,8.93
2017-12-17T02:14:01.451Z,13.17
2017-12-17T02:20:04.946Z,12.77
2017-12-17T02:26:08.688Z,9.00
2017-12-17T02:32:12.270Z,8.70
2017-12-17T02:38:15.838Z,6.83
2017-12-17T02:44:20.122Z,9.83
2017-12-17T02:50:24.733Z,9.83
2017-12-17T02:56:28.315Z,7.40
2017-12-17T03:02:32.614Z,10.33
2017-12-17T03:08:36.862Z,15.83
2017-12-17T03:14:40.351Z,14.03
2017-12-17T03:20:44.623Z,13.40
2017-12-17T03:26:48.888Z,17.43
2017-12-17T03:32:53.922Z,15.67
2017-12-17T03:38:57.451Z,10.17
2017-12-17T03:45:01.205Z,15.80
2017-12-17T03:51:05.532Z,8.00
2017-12-17T03:57:09.035Z,11.27
2017-12-17T04:03:13.534Z,7.07
2017-12-17T04:09:17.018Z,14.30
2017-12-17T04:15:20.996Z,4.20
2017-12-17T04:21:24.670Z,7.23
2017-12-17T04:27:28.961Z,14.70
2017-12-17T04:33:33.251Z,11.10
2017-12-17T04:39:37.556Z,6.73
2017-12-17T04:45:41.173Z,9.83
2017-12-17T04:51:44.804Z,9.23
2017-12-17T04:57:49.184Z,13.30
2017-12-17T05:03:53.431Z,15.53
2017-12-17T05:09:56.986Z,10.50
2017-12-17T05:16:00.721Z,6.70
2017-12-17T05:22:04.218Z,14.27
2017-12-17T05:28:07.856Z,17.33
2017-12-17T05:34:12.872Z,11.30
2017-12-17T05:40:16.401Z,6.83
2017-12-17T05:46:19.914Z,13.47
2017-12-17T05:52:23.815Z,14.33
2017-12-17T05:58:27.434Z,9.10
2017-12-17T06:04:30.995Z,13.57
2017-12-17T06:10:34.572Z,18.00
2017-12-17T06:16:38.231Z,11.20
2017-12-17T06:22:41.901Z,14.63
2017-12-17T06:28:45.399Z,10.10
2017-12-17T06:34:48.904Z,15.40
2017-12-17T06:40:52.850Z,13.73
2017-12-17T06:46:57.071Z,11.17
2017-12-17T06:53:00.612Z,14.50
2017-12-17T06:59:04.384Z,12.50
2017-12-17T07:05:09.041Z,12.27
2017-12-17T07:11:12.595Z,21.03
2017-12-17T07:17:16.094Z,9.37
2017-12-17T07:23:19.669Z,13.40
2017-12-17T07:29:24.326Z,19.60
2017-12-17T07:35:27.866Z,13.57
2017-12-17T07:41:32.133Z,18.93
2017-12-17T07:47:36.417Z,14.33
2017-12-17T07:53:40.776Z,10.00
2017-12-17T07:59:44.265Z,13.40
2017-12-17T08:05:47.759Z,8.87
2017-12-17T08:11:51.327Z,7.33
2017-12-17T08:17:55.636Z,45.67
2017-12-17T08:23:59.150Z,25.10
2017-12-17T08:30:03.423Z,11.80
2017-12-17T08:36:07.696Z,10.23
2017-12-17T08:42:11.195Z,11.23
2017-12-17T08:48:14.684Z,9.37
2017-12-17T08:54:18.528Z,12.63
2017-12-17T09:00:22.094Z,15.70
2017-12-17T09:06:25.885Z,16.93
2017-12-17T09:12:29.480Z,12.77
2017-12-17T09:18:32.996Z,8.10
2017-12-17T09:24:36.594Z,9.40
2017-12-17T09:30:40.089Z,9.87
2017-12-17T09:36:43.687Z,11.67
2017-12-17T09:42:48.070Z,10.17
2017-12-17T09:48:51.596Z,9.00
2017-12-17T09:54:55.471Z,11.03
2017-12-17T10:00:59.867Z,12.00
2017-12-17T10:07:03.451Z,10.17
2017-12-17T10:13:06.953Z,10.83
2017-12-17T10:19:11.476Z,11.20
2017-12-17T10:25:15.018Z,9.13
2017-12-17T10:31:19.529Z,25.20
2017-12-17T10:37:23.640Z,12.80
2017-12-17T10:43:27.336Z,8.40
2017-12-17T10:49:30.983Z,15.40
2017-12-17T10:55:34.789Z,11.20
2017-12-17T11:01:38.278Z,12.70
2017-12-17T11:07:42.568Z,17.13
2017-12-17T11:13:46.079Z,33.60
2017-12-17T11:19:49.593Z,12.53
2017-12-17T11:25:53.360Z,13.73
2017-12-17T11:31:56.886Z,10.23
2017-12-17T11:38:00.690Z,5.00
2017-12-17T11:44:04.231Z,14.63
2017-12-17T11:50:07.760Z,7.30
2017-12-17T11:56:11.242Z,5.83
2017-12-17T12:02:14.835Z,17.53
2017-12-17T12:08:18.888Z,6.57
2017-12-17T12:14:23.080Z,10.63
2017-12-17T12:20:27.680Z,10.63
2017-12-17T12:26:31.178Z,7.20
2017-12-17T12:32:34.716Z,5.43
2017-12-17T12:38:38.237Z,10.90
2017-12-17T12:44:42.590Z,5.83
2017-12-17T12:50:46.181Z,6.43
2017-12-17T12:56:49.708Z,4.90
2017-12-17T13:02:53.436Z,3.47
2017-12-17T13:08:57.347Z,8.10
2017-12-17T13:15:01.614Z,8.93
2017-12-17T13:21:05.898Z,5.90
2017-12-17T13:27:09.724Z,9.37
2017-12-17T13:33:13.321Z,38.67
2017-12-17T13:39:16.962Z,9.80
2017-12-17T13:45:21.234Z,5.90
2017-12-17T13:51:25.169Z,15.00
2017-12-17T13:57:28.671Z,4.23
2017-12-17T14:03:32.463Z,52.17
2017-12-17T14:09:36.220Z,3.83
2017-12-17T14:15:39.736Z,25.43
2017-12-17T14:21:43.301Z,5.17
2017-12-17T14:27:47.093Z,1.87
2017-12-17T14:33:51.069Z,6.17
2017-12-17T14:39:54.792Z,3.33
2017-12-17T14:45:59.440Z,2.80
2017-12-17T14:52:03.699Z,4.43
2017-12-17T14:58:07.198Z,3.60
2017-12-17T15:04:10.694Z,2.40
2017-12-17T15:10:14.199Z,2.80
2017-12-17T15:16:17.714Z,5.77
2017-12-17T15:22:21.276Z,5.40
2017-12-17T15:28:25.570Z,7.43
2017-12-17T15:34:29.827Z,6.67
2017-12-17T15:40:34.103Z,10.10
2017-12-17T15:46:38.551Z,11.00
2017-12-17T15:52:42.078Z,7.20
2017-12-17T15:58:45.639Z,32.70
2017-12-17T16:04:49.172Z,7.20
2017-12-17T16:10:53.326Z,10.47
2017-12-17T16:16:57.116Z,8.23
2017-12-17T16:23:01.578Z,5.73
2017-12-17T16:29:05.086Z,14.50
2017-12-17T16:35:08.790Z,11.60
2017-12-17T16:41:12.309Z,13.93
2017-12-17T16:47:15.866Z,8.80
2017-12-17T16:53:20.325Z,11.47
2017-12-17T16:59:24.793Z,15.10
2017-12-17T17:05:28.393Z,10.50
2017-12-17T17:11:32.695Z,7.17
2017-12-17T17:17:36.207Z,8.03
2017-12-17T17:23:40.481Z,6.80
2017-12-17T17:29:44.743Z,10.37
2017-12-17T17:35:49.024Z,8.03
2017-12-17T17:41:52.771Z,11.73
2017-12-17T17:47:56.604Z,12.23
2017-12-17T17:54:00.131Z,12.50
2017-12-17T18:00:03.784Z,16.40
2017-12-17T18:06:07.571Z,19.70
2017-12-17T18:12:11.108Z,23.20
2017-12-17T18:18:14.621Z,16.00
2017-12-17T18:24:18.224Z,16.73
2017-12-17T18:30:22.741Z,20.23
2017-12-17T18:36:26.449Z,15.00
2017-12-17T18:42:29.984Z,13.17
2017-12-17T18:48:34.322Z,16.17
2017-12-17T18:54:37.873Z,19.87
2017-12-17T19:00:41.416Z,22.20
2017-12-17T19:06:44.917Z,20.13
2017-12-17T19:12:49.211Z,18.00
2017-12-17T19:18:52.876Z,18.23
2017-12-17T19:24:56.783Z,24.27
2017-12-17T19:31:01.868Z,27.73
2017-12-17T19:37:05.394Z,20.60
2017-12-17T19:43:09.044Z,30.30
2017-12-17T19:49:12.585Z,26.33
2017-12-17T19:55:16.115Z,26.73
2017-12-17T20:01:20.989Z,35.10
2017-12-17T20:07:24.849Z,26.67
2017-12-17T20:13:28.456Z,30.07
2017-12-17T20:19:32.161Z,36.00
2017-12-17T20:25:35.706Z,33.63
2017-12-17T20:31:39.222Z,41.10
2017-12-17T20:37:42.741Z,42.27
2017-12-17T20:43:46.372Z,37.07
2017-12-17T20:49:49.984Z,45.37
2017-12-17T20:55:53.800Z,43.40
2017-12-17T21:01:57.391Z,39.70
2017-12-17T21:08:01.669Z,39.37
2017-12-17T21:14:05.902Z,35.00
2017-12-17T21:20:09.361Z,38.90
2017-12-17T21:26:12.833Z,39.43
2017-12-17T21:32:17.071Z,39.87
2017-12-17T21:38:20.568Z,43.43
2017-12-17T21:44:24.296Z,39.20
2017-12-17T21:50:27.894Z,40.63
2017-12-17T21:56:31.382Z,32.73
2017-12-17T22:02:34.870Z,35.33
2017-12-17T22:08:38.438Z,27.20
2017-12-17T22:14:42.694Z,26.13
2017-12-17T22:20:46.263Z,23.93
2017-12-17T22:26:50.958Z,27.43
2017-12-17T22:32:54.719Z,31.83
2017-12-17T22:38:58.990Z,19.87
2017-12-17T22:45:03.234Z,13.63
2017-12-17T22:51:06.842Z,17.20
2017-12-17T22:57:10.345Z,19.73
2017-12-17T23:03:13.816Z,17.13
2017-12-17T23:09:18.088Z,18.37
2017-12-17T23:15:22.475Z,13.37
2017-12-17T23:21:25.967Z,21.70
2017-12-17T23:27:29.623Z,18.97
2017-12-17T23:33:33.109Z,14.53
2017-12-17T23:39:36.778Z,16.10
2017-12-17T23:45:40.234Z,17.90
2017-12-17T23:51:44.746Z,17.60
2017-12-17T23:57:48.206Z,18.20
